Aérodrome :
LOGIN :

S'inscrire | Disclaimer

   EN    FR    IT 

 










Légende :    VFR   VFR Marginal   IFR   IFR Intensif   IFR Très Intensif
Visi : 
Plafond : 
>= 8 km
>= 3000ft
5 à 8 km
1000 à 3000 ft
1500m à 5 km
500 à 1000 ft
800 à 1500m
200 à 500 ft
< 800m
< 200 ft
Symboles :   Orages  Brouillard  Fortes neiges  Fortes précipitations  Vent > 20 kt
SIGMETs :   Divers  Orages  Givrage  Turbulence  Onde Orograph.  Cendres Volcan.







- Altitude de l'aérodrome : 0 ft


ETEB - Ansbach Army Heliport

DERNIER METAR :
  • 221826Z AUTO 28005KT 0800 FG VV002 03/03 A2987 RMK AO2 SLP150 RVRNO $

METARs EXPIRÉS :
  • 221811Z AUTO 27004KT 0800 FG VV001 03/03 A2986 RMK AO2 SLP147 RVRNO $
  • 221756Z AUTO 28005KT 0600 FG VV002 02/02 A2985 RMK AO2 SLP146 60001 T00220021 10023 20008 52024 RVRNO $
  • 221726Z AUTO 27004KT 0600 FG VV002 02/02 A2983 RMK AO2 SLP139 RVRNO $
  • 221656Z AUTO 28003KT 0800 FG VV002 02/02 A2982 RMK AO2 RAE1556UPB1556E08 SLP135 P0000 T00190018 RVRNO $
  • 221623Z AUTO 22003KT 0800 FG VV002 02/02 A2981 RMK AO2 RAE1556UPB1556E08 SLP132 RVRNO $
  • 221608Z AUTO 24003KT 0600 FG VV003 02/02 A2980 RMK AO2 RAE1556UPB1556E08 SLP129 RVRNO $
  • 221556Z AUTO 22003KT 0600 -UP FG VV002 02/02 A2980 RMK AO2 UPB43 SLP129 P0000 T00230022 RVRNO $
  • 221543Z AUTO 22003KT 0600 -UP FG VV002 02/02 A2979 RMK AO2 UPB43 SLP125 RVRNO $
  • 221526Z AUTO 00000KT 0600 FG VV002 02/02 A2978 RMK AO2 SLP122 RVRNO $

TAF AMD TAF ETEB
Valide du 22 à 15h jusqu'au 23 à 20h UTC


221501Z 2215/2320 26009KT 0800 -SHRA FG BKN004 610403 QNH2973INS
TEMPO 2215/2218 2400 BR BKN008
BECMG 2219/2220 26009KT 3200 BR BKN010 610305 QNH2975INS
TEMPO 2220/2222 5000 BR BKN015
BECMG 2304/2305 26009KT 6000 BR BKN010 610305 QNH3018INS
BECMG 2310/2311 25012KT 9999 NSW BKN010 620305 QNH3027INS
BECMG 2313/2314 VRB06KT 8000 -SHRA BKN010 QNH3024INS TX05/2218Z TN01/2302Z
Pas de NOTAMs connus pour ce terrain.



MET'MAP, la Météo Aéronautique d'un coup d'oeil ! - Copyright ORBIFLY Décembre 2007 - Disclaimer

ORBIFLY MET'MAP TEAM :

Programmation & Développement : Alexandra Zaïnal
Conception & Développement : Baudouin d'Aumeries
Co-Programmation & Développement : Marc-Olivier Méhu
Soutien technique & logistique : Manuel Goepfert

Contact : metmap@orbifly.com




SOURCES & CREDITS :

   NOAA